sensor_id;sensor_type;location;lat;lon;timestamp;P1;durP1;ratioP1;P2;durP2;ratioP2
67595;SDS011;54410;48.694;8.934;2022-07-15T00:01:45;4.68;;;2.40;;
67595;SDS011;54410;48.694;8.934;2022-07-15T00:04:11;3.50;;;2.50;;
67595;SDS011;54410;48.694;8.934;2022-07-15T00:06:37;7.47;;;3.00;;
67595;SDS011;54410;48.694;8.934;2022-07-15T00:09:03;3.58;;;2.72;;
67595;SDS011;54410;48.694;8.934;2022-07-15T00:11:28;5.18;;;2.80;;
67595;SDS011;54410;48.694;8.934;2022-07-15T00:13:55;5.75;;;2.97;;
67595;SDS011;54410;48.694;8.934;2022-07-15T00:16:20;6.80;;;2.83;;
67595;SDS011;54410;48.694;8.934;2022-07-15T00:18:46;6.78;;;3.00;;
67595;SDS011;54410;48.694;8.934;2022-07-15T00:21:12;4.35;;;3.17;;
67595;SDS011;54410;48.694;8.934;2022-07-15T00:23:38;7.68;;;2.85;;
67595;SDS011;54410;48.694;8.934;2022-07-15T00:26:04;4.80;;;2.92;;
67595;SDS011;54410;48.694;8.934;2022-07-15T00:28:30;4.63;;;2.60;;
67595;SDS011;54410;48.694;8.934;2022-07-15T00:30:55;3.85;;;2.80;;
67595;SDS011;54410;48.694;8.934;2022-07-15T00:33:21;6.30;;;2.78;;
67595;SDS011;54410;48.694;8.934;2022-07-15T00:35:47;4.18;;;2.88;;
67595;SDS011;54410;48.694;8.934;2022-07-15T00:38:14;6.68;;;3.08;;
67595;SDS011;54410;48.694;8.934;2022-07-15T00:40:47;5.38;;;2.50;;
67595;SDS011;54410;48.694;8.934;2022-07-15T00:43:14;6.20;;;2.75;;
67595;SDS011;54410;48.694;8.934;2022-07-15T00:45:42;3.38;;;2.83;;
67595;SDS011;54410;48.694;8.934;2022-07-15T00:48:07;4.30;;;2.97;;
67595;SDS011;54410;48.694;8.934;2022-07-15T00:50:33;5.03;;;2.95;;
67595;SDS011;54410;48.694;8.934;2022-07-15T00:53:00;3.88;;;2.80;;
67595;SDS011;54410;48.694;8.934;2022-07-15T00:55:31;4.18;;;2.92;;
67595;SDS011;54410;48.694;8.934;2022-07-15T00:58:00;3.75;;;2.70;;
67595;SDS011;54410;48.694;8.934;2022-07-15T01:00:27;5.03;;;3.42;;
67595;SDS011;54410;48.694;8.934;2022-07-15T01:02:53;5.15;;;3.05;;
67595;SDS011;54410;48.694;8.934;2022-07-15T01:05:21;5.60;;;2.97;;
67595;SDS011;54410;48.694;8.934;2022-07-15T01:07:47;5.38;;;3.15;;
67595;SDS011;54410;48.694;8.934;2022-07-15T01:10:15;3.88;;;2.90;;
67595;SDS011;54410;48.694;8.934;2022-07-15T01:12:41;5.78;;;3.03;;
67595;SDS011;54410;48.694;8.934;2022-07-15T01:15:07;4.03;;;2.67;;
67595;SDS011;54410;48.694;8.934;2022-07-15T01:17:34;3.47;;;2.75;;
67595;SDS011;54410;48.694;8.934;2022-07-15T01:20:00;4.95;;;2.90;;
67595;SDS011;54410;48.694;8.934;2022-07-15T01:22:26;7.60;;;2.97;;
67595;SDS011;54410;48.694;8.934;2022-07-15T01:24:52;3.70;;;2.60;;
67595;SDS011;54410;48.694;8.934;2022-07-15T01:27:18;4.90;;;3.20;;
67595;SDS011;54410;48.694;8.934;2022-07-15T01:29:44;5.20;;;2.72;;
67595;SDS011;54410;48.694;8.934;2022-07-15T01:32:10;3.83;;;2.92;;
67595;SDS011;54410;48.694;8.934;2022-07-15T01:34:36;5.55;;;3.25;;
67595;SDS011;54410;48.694;8.934;2022-07-15T01:37:02;3.58;;;3.00;;
67595;SDS011;54410;48.694;8.934;2022-07-15T01:39:28;4.88;;;3.17;;
67595;SDS011;54410;48.694;8.934;2022-07-15T01:41:54;5.88;;;3.40;;
67595;SDS011;54410;48.694;8.934;2022-07-15T01:44:20;5.72;;;3.30;;
67595;SDS011;54410;48.694;8.934;2022-07-15T01:46:46;4.78;;;3.50;;
67595;SDS011;54410;48.694;8.934;2022-07-15T01:49:12;5.88;;;3.35;;
67595;SDS011;54410;48.694;8.934;2022-07-15T01:51:57;4.30;;;3.28;;
67595;SDS011;54410;48.694;8.934;2022-07-15T01:54:23;4.57;;;3.13;;
67595;SDS011;54410;48.694;8.934;2022-07-15T01:56:50;5.43;;;3.45;;
67595;SDS011;54410;48.694;8.934;2022-07-15T01:59:17;5.45;;;3.70;;
67595;SDS011;54410;48.694;8.934;2022-07-15T02:01:43;5.15;;;3.25;;
67595;SDS011;54410;48.694;8.934;2022-07-15T02:04:09;6.47;;;3.53;;
67595;SDS011;54410;48.694;8.934;2022-07-15T02:06:35;5.38;;;3.33;;
67595;SDS011;54410;48.694;8.934;2022-07-15T02:09:00;5.85;;;3.35;;
67595;SDS011;54410;48.694;8.934;2022-07-15T02:11:27;5.40;;;3.20;;
67595;SDS011;54410;48.694;8.934;2022-07-15T02:13:52;5.78;;;3.08;;
67595;SDS011;54410;48.694;8.934;2022-07-15T02:16:23;5.68;;;3.47;;
67595;SDS011;54410;48.694;8.934;2022-07-15T02:18:49;4.57;;;3.70;;
67595;SDS011;54410;48.694;8.934;2022-07-15T02:21:15;5.43;;;3.83;;
67595;SDS011;54410;48.694;8.934;2022-07-15T02:23:41;4.03;;;3.35;;
67595;SDS011;54410;48.694;8.934;2022-07-15T02:26:07;4.50;;;3.28;;
67595;SDS011;54410;48.694;8.934;2022-07-15T02:28:33;4.82;;;3.65;;
67595;SDS011;54410;48.694;8.934;2022-07-15T02:30:59;6.07;;;3.50;;
67595;SDS011;54410;48.694;8.934;2022-07-15T02:33:25;3.40;;;2.97;;
67595;SDS011;54410;48.694;8.934;2022-07-15T02:35:51;5.25;;;3.17;;
67595;SDS011;54410;48.694;8.934;2022-07-15T02:38:17;5.80;;;3.33;;
67595;SDS011;54410;48.694;8.934;2022-07-15T02:40:43;5.15;;;3.22;;
67595;SDS011;54410;48.694;8.934;2022-07-15T02:43:09;4.18;;;3.30;;
67595;SDS011;54410;48.694;8.934;2022-07-15T02:45:35;5.30;;;3.60;;
67595;SDS011;54410;48.694;8.934;2022-07-15T02:48:02;5.30;;;3.47;;
67595;SDS011;54410;48.694;8.934;2022-07-15T02:50:28;5.05;;;3.70;;
67595;SDS011;54410;48.694;8.934;2022-07-15T02:52:54;7.05;;;3.40;;
67595;SDS011;54410;48.694;8.934;2022-07-15T02:55:20;4.85;;;3.45;;
67595;SDS011;54410;48.694;8.934;2022-07-15T02:57:46;4.70;;;3.60;;
67595;SDS011;54410;48.694;8.934;2022-07-15T03:00:14;5.03;;;3.60;;
67595;SDS011;54410;48.694;8.934;2022-07-15T03:02:44;4.40;;;3.33;;
67595;SDS011;54410;48.694;8.934;2022-07-15T03:05:11;3.83;;;3.45;;
67595;SDS011;54410;48.694;8.934;2022-07-15T03:07:37;5.00;;;3.78;;
67595;SDS011;54410;48.694;8.934;2022-07-15T03:10:04;5.88;;;3.78;;
67595;SDS011;54410;48.694;8.934;2022-07-15T03:12:30;5.07;;;3.75;;
67595;SDS011;54410;48.694;8.934;2022-07-15T03:14:56;4.18;;;3.30;;
67595;SDS011;54410;48.694;8.934;2022-07-15T03:17:22;6.13;;;3.72;;
67595;SDS011;54410;48.694;8.934;2022-07-15T03:19:47;4.05;;;3.63;;
67595;SDS011;54410;48.694;8.934;2022-07-15T03:22:13;4.65;;;3.90;;
67595;SDS011;54410;48.694;8.934;2022-07-15T03:24:39;5.47;;;3.60;;
67595;SDS011;54410;48.694;8.934;2022-07-15T03:27:05;5.47;;;3.63;;
67595;SDS011;54410;48.694;8.934;2022-07-15T03:29:31;4.40;;;3.65;;
67595;SDS011;54410;48.694;8.934;2022-07-15T03:31:57;4.00;;;3.45;;
67595;SDS011;54410;48.694;8.934;2022-07-15T03:34:23;5.97;;;3.88;;
67595;SDS011;54410;48.694;8.934;2022-07-15T03:36:50;4.43;;;3.50;;
67595;SDS011;54410;48.694;8.934;2022-07-15T03:39:16;6.22;;;4.40;;
67595;SDS011;54410;48.694;8.934;2022-07-15T03:41:42;3.78;;;3.28;;
67595;SDS011;54410;48.694;8.934;2022-07-15T03:44:08;4.90;;;3.85;;
67595;SDS011;54410;48.694;8.934;2022-07-15T03:46:34;3.95;;;3.50;;
67595;SDS011;54410;48.694;8.934;2022-07-15T03:49:01;5.00;;;3.97;;
67595;SDS011;54410;48.694;8.934;2022-07-15T03:51:28;6.03;;;3.40;;
67595;SDS011;54410;48.694;8.934;2022-07-15T03:53:59;7.50;;;3.92;;
67595;SDS011;54410;48.694;8.934;2022-07-15T03:56:28;4.57;;;3.90;;
67595;SDS011;54410;48.694;8.934;2022-07-15T03:58:54;8.90;;;4.07;;
67595;SDS011;54410;48.694;8.934;2022-07-15T04:01:21;5.20;;;3.95;;
67595;SDS011;54410;48.694;8.934;2022-07-15T04:03:50;4.63;;;3.90;;
67595;SDS011;54410;48.694;8.934;2022-07-15T04:06:17;4.55;;;4.07;;
67595;SDS011;54410;48.694;8.934;2022-07-15T04:08:43;5.03;;;3.70;;
67595;SDS011;54410;48.694;8.934;2022-07-15T04:11:09;4.50;;;3.90;;
67595;SDS011;54410;48.694;8.934;2022-07-15T04:13:35;5.22;;;4.00;;
67595;SDS011;54410;48.694;8.934;2022-07-15T04:16:02;5.80;;;3.25;;
67595;SDS011;54410;48.694;8.934;2022-07-15T04:18:27;6.88;;;3.38;;
67595;SDS011;54410;48.694;8.934;2022-07-15T04:20:53;6.43;;;3.60;;
67595;SDS011;54410;48.694;8.934;2022-07-15T04:23:20;3.58;;;2.72;;
67595;SDS011;54410;48.694;8.934;2022-07-15T04:25:46;3.42;;;3.13;;
67595;SDS011;54410;48.694;8.934;2022-07-15T04:28:12;3.65;;;3.03;;
67595;SDS011;54410;48.694;8.934;2022-07-15T04:30:38;4.90;;;3.67;;
67595;SDS011;54410;48.694;8.934;2022-07-15T04:33:04;5.32;;;2.92;;
67595;SDS011;54410;48.694;8.934;2022-07-15T04:35:30;5.68;;;3.42;;
67595;SDS011;54410;48.694;8.934;2022-07-15T04:37:56;6.72;;;2.90;;
67595;SDS011;54410;48.694;8.934;2022-07-15T04:40:21;6.15;;;2.80;;
67595;SDS011;54410;48.694;8.934;2022-07-15T04:42:47;3.92;;;2.67;;
67595;SDS011;54410;48.694;8.934;2022-07-15T04:45:13;3.63;;;2.80;;
67595;SDS011;54410;48.694;8.934;2022-07-15T04:47:39;4.28;;;2.90;;
67595;SDS011;54410;48.694;8.934;2022-07-15T04:50:05;4.03;;;2.83;;
67595;SDS011;54410;48.694;8.934;2022-07-15T04:52:50;3.90;;;2.63;;
67595;SDS011;54410;48.694;8.934;2022-07-15T04:55:15;3.92;;;2.72;;
67595;SDS011;54410;48.694;8.934;2022-07-15T04:57:41;5.93;;;2.60;;
67595;SDS011;54410;48.694;8.934;2022-07-15T05:00:07;2.47;;;2.10;;
67595;SDS011;54410;48.694;8.934;2022-07-15T05:02:34;4.65;;;2.50;;
67595;SDS011;54410;48.694;8.934;2022-07-15T05:05:00;4.63;;;2.33;;
67595;SDS011;54410;48.694;8.934;2022-07-15T05:07:25;5.43;;;2.40;;
67595;SDS011;54410;48.694;8.934;2022-07-15T05:09:52;2.58;;;1.90;;
67595;SDS011;54410;48.694;8.934;2022-07-15T05:12:18;3.75;;;2.10;;
67595;SDS011;54410;48.694;8.934;2022-07-15T05:14:43;3.05;;;1.98;;
67595;SDS011;54410;48.694;8.934;2022-07-15T05:17:09;2.60;;;1.92;;
67595;SDS011;54410;48.694;8.934;2022-07-15T05:19:35;3.42;;;2.20;;
67595;SDS011;54410;48.694;8.934;2022-07-15T05:22:01;3.17;;;2.40;;
67595;SDS011;54410;48.694;8.934;2022-07-15T05:24:27;2.17;;;1.75;;
67595;SDS011;54410;48.694;8.934;2022-07-15T05:26:53;2.55;;;1.52;;
67595;SDS011;54410;48.694;8.934;2022-07-15T05:29:18;7.45;;;2.20;;
67595;SDS011;54410;48.694;8.934;2022-07-15T05:31:47;3.47;;;2.10;;
67595;SDS011;54410;48.694;8.934;2022-07-15T05:34:13;3.80;;;1.98;;
67595;SDS011;54410;48.694;8.934;2022-07-15T05:36:39;4.55;;;2.10;;
67595;SDS011;54410;48.694;8.934;2022-07-15T05:39:05;5.97;;;2.15;;
67595;SDS011;54410;48.694;8.934;2022-07-15T05:41:30;3.25;;;2.10;;
67595;SDS011;54410;48.694;8.934;2022-07-15T05:43:59;6.72;;;2.60;;
67595;SDS011;54410;48.694;8.934;2022-07-15T05:46:25;4.47;;;2.20;;
67595;SDS011;54410;48.694;8.934;2022-07-15T05:48:50;3.88;;;1.85;;
67595;SDS011;54410;48.694;8.934;2022-07-15T05:51:16;2.95;;;1.80;;
67595;SDS011;54410;48.694;8.934;2022-07-15T05:53:42;4.55;;;1.90;;
67595;SDS011;54410;48.694;8.934;2022-07-15T05:56:07;3.47;;;1.67;;
67595;SDS011;54410;48.694;8.934;2022-07-15T05:58:33;3.65;;;1.75;;
67595;SDS011;54410;48.694;8.934;2022-07-15T06:00:59;6.72;;;1.80;;
67595;SDS011;54410;48.694;8.934;2022-07-15T06:03:25;3.20;;;1.75;;
67595;SDS011;54410;48.694;8.934;2022-07-15T06:05:50;4.78;;;1.75;;
67595;SDS011;54410;48.694;8.934;2022-07-15T06:08:16;4.13;;;1.70;;
67595;SDS011;54410;48.694;8.934;2022-07-15T06:10:42;8.80;;;2.15;;
67595;SDS011;54410;48.694;8.934;2022-07-15T06:13:08;7.20;;;2.10;;
67595;SDS011;54410;48.694;8.934;2022-07-15T06:15:33;5.13;;;2.10;;
67595;SDS011;54410;48.694;8.934;2022-07-15T06:18:00;5.97;;;1.77;;
67595;SDS011;54410;48.694;8.934;2022-07-15T06:20:25;9.60;;;1.75;;
67595;SDS011;54410;48.694;8.934;2022-07-15T06:22:51;4.50;;;1.80;;
67595;SDS011;54410;48.694;8.934;2022-07-15T06:25:17;7.85;;;1.95;;
67595;SDS011;54410;48.694;8.934;2022-07-15T06:27:42;12.68;;;2.10;;
67595;SDS011;54410;48.694;8.934;2022-07-15T06:30:08;7.18;;;1.92;;
67595;SDS011;54410;48.694;8.934;2022-07-15T06:32:34;6.70;;;2.08;;
67595;SDS011;54410;48.694;8.934;2022-07-15T06:35:00;7.57;;;2.13;;
67595;SDS011;54410;48.694;8.934;2022-07-15T06:37:26;6.72;;;2.47;;
67595;SDS011;54410;48.694;8.934;2022-07-15T06:39:53;5.47;;;1.80;;
67595;SDS011;54410;48.694;8.934;2022-07-15T06:42:20;4.75;;;1.88;;
67595;SDS011;54410;48.694;8.934;2022-07-15T06:44:46;5.43;;;1.73;;
67595;SDS011;54410;48.694;8.934;2022-07-15T06:47:12;6.32;;;2.08;;
67595;SDS011;54410;48.694;8.934;2022-07-15T06:49:38;6.63;;;1.88;;
67595;SDS011;54410;48.694;8.934;2022-07-15T06:52:04;7.72;;;2.00;;
67595;SDS011;54410;48.694;8.934;2022-07-15T06:54:30;6.85;;;1.55;;
67595;SDS011;54410;48.694;8.934;2022-07-15T06:56:56;4.40;;;1.50;;
67595;SDS011;54410;48.694;8.934;2022-07-15T06:59:26;3.78;;;1.63;;
67595;SDS011;54410;48.694;8.934;2022-07-15T07:01:52;7.40;;;2.00;;
67595;SDS011;54410;48.694;8.934;2022-07-15T07:04:18;6.18;;;1.70;;
67595;SDS011;54410;48.694;8.934;2022-07-15T07:06:44;6.88;;;2.10;;
67595;SDS011;54410;48.694;8.934;2022-07-15T07:09:10;5.75;;;1.77;;
67595;SDS011;54410;48.694;8.934;2022-07-15T07:11:36;3.67;;;1.65;;
67595;SDS011;54410;48.694;8.934;2022-07-15T07:14:02;6.15;;;1.70;;
67595;SDS011;54410;48.694;8.934;2022-07-15T07:16:28;4.13;;;1.52;;
67595;SDS011;54410;48.694;8.934;2022-07-15T07:18:56;6.22;;;1.65;;
67595;SDS011;54410;48.694;8.934;2022-07-15T07:21:22;4.18;;;1.67;;
67595;SDS011;54410;48.694;8.934;2022-07-15T07:23:48;2.42;;;1.50;;
67595;SDS011;54410;48.694;8.934;2022-07-15T07:26:14;4.50;;;1.35;;
67595;SDS011;54410;48.694;8.934;2022-07-15T07:28:40;3.95;;;1.45;;
67595;SDS011;54410;48.694;8.934;2022-07-15T07:31:07;2.80;;;1.10;;
67595;SDS011;54410;48.694;8.934;2022-07-15T07:33:33;3.38;;;1.33;;
67595;SDS011;54410;48.694;8.934;2022-07-15T07:35:59;3.17;;;1.55;;
67595;SDS011;54410;48.694;8.934;2022-07-15T07:38:25;4.00;;;1.42;;
67595;SDS011;54410;48.694;8.934;2022-07-15T07:40:51;4.22;;;1.40;;
67595;SDS011;54410;48.694;8.934;2022-07-15T07:43:18;3.40;;;1.08;;
67595;SDS011;54410;48.694;8.934;2022-07-15T07:45:44;6.82;;;1.35;;
67595;SDS011;54410;48.694;8.934;2022-07-15T07:48:11;5.32;;;1.20;;
67595;SDS011;54410;48.694;8.934;2022-07-15T07:50:37;2.70;;;1.30;;
67595;SDS011;54410;48.694;8.934;2022-07-15T07:53:04;5.53;;;1.60;;
67595;SDS011;54410;48.694;8.934;2022-07-15T07:55:30;3.33;;;1.40;;
67595;SDS011;54410;48.694;8.934;2022-07-15T07:57:56;2.88;;;1.50;;
67595;SDS011;54410;48.694;8.934;2022-07-15T08:00:23;3.60;;;1.67;;
67595;SDS011;54410;48.694;8.934;2022-07-15T08:02:51;2.20;;;1.20;;
67595;SDS011;54410;48.694;8.934;2022-07-15T08:05:18;4.90;;;1.40;;
67595;SDS011;54410;48.694;8.934;2022-07-15T08:07:43;2.33;;;1.38;;
67595;SDS011;54410;48.694;8.934;2022-07-15T08:10:10;5.65;;;1.13;;
67595;SDS011;54410;48.694;8.934;2022-07-15T08:12:37;2.75;;;1.30;;
67595;SDS011;54410;48.694;8.934;2022-07-15T08:15:03;4.57;;;1.50;;
67595;SDS011;54410;48.694;8.934;2022-07-15T08:17:30;3.90;;;1.50;;
67595;SDS011;54410;48.694;8.934;2022-07-15T08:19:56;6.03;;;1.48;;
67595;SDS011;54410;48.694;8.934;2022-07-15T08:22:22;5.25;;;1.50;;
67595;SDS011;54410;48.694;8.934;2022-07-15T08:24:48;3.28;;;1.45;;
67595;SDS011;54410;48.694;8.934;2022-07-15T08:27:15;3.45;;;1.63;;
67595;SDS011;54410;48.694;8.934;2022-07-15T08:29:41;3.38;;;1.50;;
67595;SDS011;54410;48.694;8.934;2022-07-15T08:32:07;3.58;;;1.30;;
67595;SDS011;54410;48.694;8.934;2022-07-15T08:34:33;2.92;;;1.40;;
67595;SDS011;54410;48.694;8.934;2022-07-15T08:36:59;7.05;;;1.90;;
67595;SDS011;54410;48.694;8.934;2022-07-15T08:39:25;4.55;;;1.60;;
67595;SDS011;54410;48.694;8.934;2022-07-15T08:41:51;4.53;;;1.73;;
67595;SDS011;54410;48.694;8.934;2022-07-15T08:44:17;9.77;;;1.77;;
67595;SDS011;54410;48.694;8.934;2022-07-15T08:46:47;7.50;;;2.13;;
67595;SDS011;54410;48.694;8.934;2022-07-15T08:49:14;2.45;;;1.38;;
67595;SDS011;54410;48.694;8.934;2022-07-15T08:51:44;4.32;;;1.65;;
67595;SDS011;54410;48.694;8.934;2022-07-15T08:54:14;6.25;;;1.70;;
67595;SDS011;54410;48.694;8.934;2022-07-15T08:56:41;5.05;;;1.50;;
67595;SDS011;54410;48.694;8.934;2022-07-15T08:59:10;4.88;;;1.70;;
67595;SDS011;54410;48.694;8.934;2022-07-15T09:01:41;3.17;;;1.35;;
67595;SDS011;54410;48.694;8.934;2022-07-15T09:04:08;6.97;;;1.65;;
67595;SDS011;54410;48.694;8.934;2022-07-15T09:11:53;3.72;;;1.83;;
67595;SDS011;54410;48.694;8.934;2022-07-15T09:14:19;4.57;;;1.83;;
67595;SDS011;54410;48.694;8.934;2022-07-15T09:16:46;5.30;;;1.67;;
67595;SDS011;54410;48.694;8.934;2022-07-15T09:19:12;5.20;;;1.70;;
67595;SDS011;54410;48.694;8.934;2022-07-15T09:21:38;4.32;;;1.55;;
67595;SDS011;54410;48.694;8.934;2022-07-15T09:24:17;4.53;;;1.63;;
67595;SDS011;54410;48.694;8.934;2022-07-15T09:26:43;2.70;;;1.50;;
67595;SDS011;54410;48.694;8.934;2022-07-15T09:29:09;3.30;;;1.67;;
67595;SDS011;54410;48.694;8.934;2022-07-15T09:31:59;1.85;;;1.52;;
67595;SDS011;54410;48.694;8.934;2022-07-15T09:37:25;1.60;;;1.45;;
67595;SDS011;54410;48.694;8.934;2022-07-15T09:39:55;6.13;;;1.58;;
67595;SDS011;54410;48.694;8.934;2022-07-15T09:42:21;3.83;;;1.52;;
67595;SDS011;54410;48.694;8.934;2022-07-15T09:44:47;5.00;;;2.03;;
67595;SDS011;54410;48.694;8.934;2022-07-15T09:47:16;3.05;;;1.50;;
67595;SDS011;54410;48.694;8.934;2022-07-15T09:49:49;7.05;;;1.73;;
67595;SDS011;54410;48.694;8.934;2022-07-15T09:52:15;5.50;;;2.20;;
67595;SDS011;54410;48.694;8.934;2022-07-15T09:54:46;5.30;;;1.88;;
67595;SDS011;54410;48.694;8.934;2022-07-15T09:57:14;6.10;;;2.15;;
67595;SDS011;54410;48.694;8.934;2022-07-15T09:59:44;3.22;;;1.75;;
67595;SDS011;54410;48.694;8.934;2022-07-15T10:02:10;5.07;;;2.45;;
67595;SDS011;54410;48.694;8.934;2022-07-15T10:04:37;6.00;;;2.35;;
67595;SDS011;54410;48.694;8.934;2022-07-15T10:07:03;4.15;;;1.75;;
67595;SDS011;54410;48.694;8.934;2022-07-15T10:09:30;5.10;;;2.40;;
67595;SDS011;54410;48.694;8.934;2022-07-15T10:12:06;5.55;;;1.92;;
67595;SDS011;54410;48.694;8.934;2022-07-15T10:28:09;4.60;;;1.80;;
67595;SDS011;54410;48.694;8.934;2022-07-15T10:30:41;4.18;;;1.80;;
67595;SDS011;54410;48.694;8.934;2022-07-15T10:33:15;4.30;;;2.00;;
67595;SDS011;54410;48.694;8.934;2022-07-15T10:40:59;3.15;;;1.80;;
67595;SDS011;54410;48.694;8.934;2022-07-15T10:46:04;3.35;;;1.98;;
67595;SDS011;54410;48.694;8.934;2022-07-15T10:48:30;4.43;;;2.03;;
67595;SDS011;54410;48.694;8.934;2022-07-15T10:50:56;3.58;;;1.98;;
67595;SDS011;54410;48.694;8.934;2022-07-15T10:53:23;5.00;;;2.35;;
67595;SDS011;54410;48.694;8.934;2022-07-15T10:55:50;6.43;;;2.47;;
67595;SDS011;54410;48.694;8.934;2022-07-15T10:58:16;7.28;;;2.08;;
67595;SDS011;54410;48.694;8.934;2022-07-15T11:00:42;2.33;;;1.85;;
67595;SDS011;54410;48.694;8.934;2022-07-15T11:13:45;7.68;;;2.33;;
67595;SDS011;54410;48.694;8.934;2022-07-15T11:16:15;6.22;;;2.80;;
67595;SDS011;54410;48.694;8.934;2022-07-15T11:21:11;5.63;;;2.22;;
67595;SDS011;54410;48.694;8.934;2022-07-15T11:23:38;5.78;;;2.50;;
67595;SDS011;54410;48.694;8.934;2022-07-15T11:26:03;3.88;;;2.00;;
67595;SDS011;54410;48.694;8.934;2022-07-15T11:28:30;3.67;;;2.10;;
67595;SDS011;54410;48.694;8.934;2022-07-15T11:30:56;7.47;;;1.63;;
67595;SDS011;54410;48.694;8.934;2022-07-15T11:33:22;6.20;;;2.00;;
67595;SDS011;54410;48.694;8.934;2022-07-15T11:38:19;4.55;;;2.30;;
67595;SDS011;54410;48.694;8.934;2022-07-15T11:40:49;2.58;;;1.90;;
67595;SDS011;54410;48.694;8.934;2022-07-15T11:43:34;6.68;;;2.03;;
67595;SDS011;54410;48.694;8.934;2022-07-15T11:46:19;3.55;;;1.80;;
67595;SDS011;54410;48.694;8.934;2022-07-15T11:48:47;5.10;;;2.17;;
67595;SDS011;54410;48.694;8.934;2022-07-15T11:51:14;3.03;;;1.73;;
67595;SDS011;54410;48.694;8.934;2022-07-15T11:53:41;3.72;;;2.10;;
67595;SDS011;54410;48.694;8.934;2022-07-15T11:56:09;3.53;;;1.92;;
67595;SDS011;54410;48.694;8.934;2022-07-15T11:58:45;5.05;;;2.00;;
67595;SDS011;54410;48.694;8.934;2022-07-15T12:01:13;3.58;;;1.58;;
67595;SDS011;54410;48.694;8.934;2022-07-15T12:03:44;3.58;;;1.95;;
67595;SDS011;54410;48.694;8.934;2022-07-15T12:08:40;5.38;;;2.20;;
67595;SDS011;54410;48.694;8.934;2022-07-15T12:11:10;4.97;;;2.03;;
67595;SDS011;54410;48.694;8.934;2022-07-15T12:13:40;5.97;;;2.17;;
67595;SDS011;54410;48.694;8.934;2022-07-15T12:16:10;6.55;;;2.35;;
67595;SDS011;54410;48.694;8.934;2022-07-15T12:18:37;4.05;;;1.65;;
67595;SDS011;54410;48.694;8.934;2022-07-15T12:21:03;3.60;;;2.22;;
67595;SDS011;54410;48.694;8.934;2022-07-15T12:23:29;2.70;;;1.90;;
67595;SDS011;54410;48.694;8.934;2022-07-15T12:26:05;5.57;;;2.40;;
67595;SDS011;54410;48.694;8.934;2022-07-15T12:28:32;3.47;;;1.90;;
67595;SDS011;54410;48.694;8.934;2022-07-15T12:30:58;4.10;;;2.10;;
67595;SDS011;54410;48.694;8.934;2022-07-15T12:33:24;4.60;;;1.90;;
67595;SDS011;54410;48.694;8.934;2022-07-15T12:36:00;4.15;;;1.92;;
67595;SDS011;54410;48.694;8.934;2022-07-15T12:38:36;3.85;;;1.75;;
67595;SDS011;54410;48.694;8.934;2022-07-15T12:41:05;4.18;;;2.00;;
67595;SDS011;54410;48.694;8.934;2022-07-15T12:43:47;5.63;;;1.92;;
67595;SDS011;54410;48.694;8.934;2022-07-15T12:46:14;3.40;;;2.10;;
67595;SDS011;54410;48.694;8.934;2022-07-15T12:48:44;5.95;;;2.13;;
67595;SDS011;54410;48.694;8.934;2022-07-15T12:51:11;6.10;;;2.00;;
67595;SDS011;54410;48.694;8.934;2022-07-15T12:53:38;2.42;;;1.80;;
67595;SDS011;54410;48.694;8.934;2022-07-15T12:56:04;2.28;;;1.83;;
67595;SDS011;54410;48.694;8.934;2022-07-15T12:58:31;5.90;;;2.05;;
67595;SDS011;54410;48.694;8.934;2022-07-15T13:01:08;2.40;;;1.83;;
67595;SDS011;54410;48.694;8.934;2022-07-15T13:03:38;8.05;;;1.90;;
67595;SDS011;54410;48.694;8.934;2022-07-15T13:06:04;3.25;;;2.00;;
67595;SDS011;54410;48.694;8.934;2022-07-15T13:08:32;3.28;;;1.80;;
67595;SDS011;54410;48.694;8.934;2022-07-15T13:11:00;5.70;;;2.00;;
67595;SDS011;54410;48.694;8.934;2022-07-15T13:13:28;5.85;;;1.85;;
67595;SDS011;54410;48.694;8.934;2022-07-15T13:15:55;5.22;;;2.20;;
67595;SDS011;54410;48.694;8.934;2022-07-15T13:18:21;4.32;;;1.80;;
67595;SDS011;54410;48.694;8.934;2022-07-15T13:20:50;6.60;;;1.90;;
67595;SDS011;54410;48.694;8.934;2022-07-15T13:23:16;6.68;;;2.38;;
67595;SDS011;54410;48.694;8.934;2022-07-15T13:25:42;3.33;;;1.73;;
67595;SDS011;54410;48.694;8.934;2022-07-15T13:28:10;4.85;;;2.20;;
67595;SDS011;54410;48.694;8.934;2022-07-15T13:30:36;4.10;;;1.83;;
67595;SDS011;54410;48.694;8.934;2022-07-15T13:33:04;6.07;;;2.08;;
67595;SDS011;54410;48.694;8.934;2022-07-15T13:35:30;5.13;;;2.10;;
67595;SDS011;54410;48.694;8.934;2022-07-15T13:37:55;3.30;;;1.92;;
67595;SDS011;54410;48.694;8.934;2022-07-15T13:40:21;4.68;;;2.22;;
67595;SDS011;54410;48.694;8.934;2022-07-15T13:42:48;5.35;;;1.95;;
67595;SDS011;54410;48.694;8.934;2022-07-15T13:45:14;5.82;;;2.00;;
67595;SDS011;54410;48.694;8.934;2022-07-15T13:47:41;5.70;;;2.22;;
67595;SDS011;54410;48.694;8.934;2022-07-15T13:50:07;3.17;;;1.92;;
67595;SDS011;54410;48.694;8.934;2022-07-15T13:52:53;3.42;;;1.92;;
67595;SDS011;54410;48.694;8.934;2022-07-15T13:55:21;3.97;;;1.70;;
67595;SDS011;54410;48.694;8.934;2022-07-15T13:57:47;7.18;;;1.98;;
67595;SDS011;54410;48.694;8.934;2022-07-15T14:00:14;3.45;;;2.08;;
67595;SDS011;54410;48.694;8.934;2022-07-15T14:02:47;2.55;;;1.90;;
67595;SDS011;54410;48.694;8.934;2022-07-15T14:05:14;9.52;;;2.13;;
67595;SDS011;54410;48.694;8.934;2022-07-15T14:07:40;3.70;;;2.03;;
67595;SDS011;54410;48.694;8.934;2022-07-15T14:10:06;4.82;;;2.25;;
67595;SDS011;54410;48.694;8.934;2022-07-15T14:12:32;3.70;;;2.08;;
67595;SDS011;54410;48.694;8.934;2022-07-15T14:14:58;5.32;;;2.33;;
67595;SDS011;54410;48.694;8.934;2022-07-15T14:17:25;5.35;;;2.00;;
67595;SDS011;54410;48.694;8.934;2022-07-15T14:19:53;4.75;;;2.05;;
67595;SDS011;54410;48.694;8.934;2022-07-15T14:22:19;2.10;;;1.90;;
67595;SDS011;54410;48.694;8.934;2022-07-15T14:24:45;3.30;;;1.88;;
67595;SDS011;54410;48.694;8.934;2022-07-15T14:27:11;5.10;;;2.03;;
67595;SDS011;54410;48.694;8.934;2022-07-15T14:29:37;3.30;;;2.15;;
67595;SDS011;54410;48.694;8.934;2022-07-15T14:32:03;5.03;;;1.80;;
67595;SDS011;54410;48.694;8.934;2022-07-15T14:34:29;4.57;;;1.80;;
67595;SDS011;54410;48.694;8.934;2022-07-15T14:36:55;4.75;;;1.98;;
67595;SDS011;54410;48.694;8.934;2022-07-15T14:39:22;4.65;;;1.92;;
67595;SDS011;54410;48.694;8.934;2022-07-15T14:41:49;3.10;;;1.92;;
67595;SDS011;54410;48.694;8.934;2022-07-15T14:44:15;2.65;;;1.90;;
67595;SDS011;54410;48.694;8.934;2022-07-15T14:46:40;7.65;;;1.80;;
67595;SDS011;54410;48.694;8.934;2022-07-15T14:49:06;5.97;;;2.13;;
67595;SDS011;54410;48.694;8.934;2022-07-15T14:51:32;3.88;;;1.75;;
67595;SDS011;54410;48.694;8.934;2022-07-15T14:53:58;3.03;;;2.10;;
67595;SDS011;54410;48.694;8.934;2022-07-15T14:56:24;8.00;;;1.77;;
67595;SDS011;54410;48.694;8.934;2022-07-15T14:58:50;2.95;;;2.10;;
67595;SDS011;54410;48.694;8.934;2022-07-15T15:01:16;10.18;;;2.00;;
67595;SDS011;54410;48.694;8.934;2022-07-15T15:03:42;3.08;;;2.10;;
67595;SDS011;54410;48.694;8.934;2022-07-15T15:06:08;3.17;;;2.08;;
67595;SDS011;54410;48.694;8.934;2022-07-15T15:08:34;2.95;;;1.80;;
67595;SDS011;54410;48.694;8.934;2022-07-15T15:11:00;3.45;;;1.90;;
67595;SDS011;54410;48.694;8.934;2022-07-15T15:13:26;3.97;;;2.30;;
67595;SDS011;54410;48.694;8.934;2022-07-15T15:15:52;3.63;;;2.08;;
67595;SDS011;54410;48.694;8.934;2022-07-15T15:18:18;3.63;;;1.92;;
67595;SDS011;54410;48.694;8.934;2022-07-15T15:20:44;5.03;;;1.92;;
67595;SDS011;54410;48.694;8.934;2022-07-15T15:23:10;3.45;;;2.33;;
67595;SDS011;54410;48.694;8.934;2022-07-15T15:25:36;7.32;;;2.10;;
67595;SDS011;54410;48.694;8.934;2022-07-15T15:28:20;5.78;;;2.00;;
67595;SDS011;54410;48.694;8.934;2022-07-15T15:30:46;5.25;;;1.67;;
67595;SDS011;54410;48.694;8.934;2022-07-15T15:33:12;2.60;;;1.60;;
67595;SDS011;54410;48.694;8.934;2022-07-15T15:35:38;5.07;;;2.05;;